Come By Chance, Canada
Current Conditions -  °F | °C
As of 11:00 PM on Wednesday 22 Oct 2014 (Local Time) from CYYT Reporting Station
Scattered Clouds Scattered Clouds  
Wind Chill: 39°   Ceiling: Unl
Heat Index: 39°   Visibility: 15mi
Dew Point: 37°   Wind: 3mph
Humidity: 93%   Direction: 60°ENE
Pressure: 30.46"   Gusts: NA
Location:  47.85°N, 53.98°W
Report Text: CYYT 230100Z 06003KT 15SM FEW015 SCT230 04/03 A3046 RMK SC1CI2 SLP319
Loading
Personal Weather Stations






























Interactive Weather Map
Tropical Storm Tracking
New forecast layout! Learn more

10-Day Weather Forecast

Advertisements
Track Severe Weather on mobile